AZA83A LIRF-RJBB
Flight info
| Callsign | AZA83A |
|---|---|
| Flight time | N/A |
| Altitude | 32000 |
| Route | TIBER DCT IBENI/N0487F330 DCT MAGAM DCT TEKNO DCT SUPAK L999 BIGLU/K0896F330 L999 MAPAT/K0893F350 L999 LAPKI N869 RANTO T753 AGBIR T783 BALOB N155 NIPRA T631 TUNAL/K0911F370 T631 SOREB B718 SOTOM A920 TULSO/K0898F390 A920 KTN A91 AGINO A810 TELOK/K0917F391 A345 MANLI/K0915S1190 A345 HLD B451 KETOV/K0907S1250 B451 UGABI W39 YNJ R224 VASRO/K0900F410 M825 KANSU/N0486F400 B332 IGRAS/N0485F410 Y332 MIHOU Y39 OYE ATMUG |
| Aircraft | MD11/H-SDE1E2E3FGHIJ2J3J4J5M1RWXY/LB1D1 |
Departure
| Time | 2026-05-01 08:21 |
|---|---|
| Airport | Rome–Fiumicino Leonardo da Vinci International Airport (LIRF) |
Arrival
| Time | N/A |
|---|---|
| Airport | Kansai International Airport (RJBB) |
| Time | Latitude | Longitude | Altitude | Speed | Heading |
|---|---|---|---|---|---|
| 2026-05-01 07:23 | 41.79247 | 12.24240 | 21 ft | 0 kts | 70° |
| 2026-05-01 08:09 | 41.79245 | 12.24230 | 21 ft | 4 kts | 71° |
| 2026-05-01 08:09 | 41.79237 | 12.24195 | 23 ft | 4 kts | 76° |
| 2026-05-01 08:09 | 41.79231 | 12.24160 | 21 ft | 4 kts | 83° |
| 2026-05-01 08:10 | 41.79240 | 12.24096 | 26 ft | 3 kts | 154° |
| 2026-05-01 08:10 | 41.79242 | 12.24094 | 26 ft | 0 kts | 160° |
| 2026-05-01 08:15 | 41.79217 | 12.24107 | 25 ft | 4 kts | 160° |
| 2026-05-01 08:15 | 41.79196 | 12.24117 | 21 ft | 3 kts | 160° |
| 2026-05-01 08:16 | 41.79168 | 12.24131 | 22 ft | 5 kts | 160° |
| 2026-05-01 08:16 | 41.79128 | 12.24151 | 21 ft | 7 kts | 160° |
| 2026-05-01 08:16 | 41.79076 | 12.24176 | 21 ft | 9 kts | 160° |
| 2026-05-01 08:16 | 41.79020 | 12.24203 | 22 ft | 8 kts | 160° |
| 2026-05-01 08:17 | 41.78966 | 12.24217 | 23 ft | 7 kts | 193° |
| 2026-05-01 08:17 | 41.78943 | 12.24168 | 23 ft | 7 kts | 251° |
| 2026-05-01 08:17 | 41.78927 | 12.24093 | 26 ft | 9 kts | 242° |
| 2026-05-01 08:17 | 41.78884 | 12.24083 | 27 ft | 8 kts | 169° |
| 2026-05-01 08:18 | 41.78817 | 12.24111 | 25 ft | 12 kts | 162° |
| 2026-05-01 08:18 | 41.78600 | 12.24202 | 26 ft | 20 kts | 162° |
| 2026-05-01 08:19 | 41.78369 | 12.24298 | 26 ft | 15 kts | 162° |
| 2026-05-01 08:19 | 41.78274 | 12.24335 | 27 ft | 13 kts | 172° |
| 2026-05-01 08:19 | 41.78217 | 12.24285 | 23 ft | 9 kts | 244° |
| 2026-05-01 08:19 | 41.78201 | 12.24209 | 21 ft | 9 kts | 255° |
| 2026-05-01 08:20 | 41.78211 | 12.24131 | 24 ft | 8 kts | 301° |
| 2026-05-01 08:20 | 41.78238 | 12.24071 | 26 ft | 7 kts | 301° |
| 2026-05-01 08:20 | 41.78262 | 12.24023 | 28 ft | 6 kts | 313° |
| 2026-05-01 08:20 | 41.78323 | 12.23990 | 28 ft | 15 kts | 342° |
| 2026-05-01 08:21 | 41.78651 | 12.23854 | 24 ft | 89 kts | 343° |
| 2026-05-01 08:21 | 41.79479 | 12.23507 | 21 ft | 157 kts | 343° |
| 2026-05-01 08:21 | 41.80641 | 12.23016 | 207 ft | 184 kts | 343° |
| 2026-05-01 08:21 | 41.81848 | 12.22395 | 705 ft | 188 kts | 334° |
| 2026-05-01 08:22 | 41.82840 | 12.21257 | 1306 ft | 193 kts | 307° |
| 2026-05-01 08:22 | 41.83433 | 12.19576 | 1835 ft | 213 kts | 295° |
| 2026-05-01 08:22 | 41.83939 | 12.17555 | 2296 ft | 240 kts | 289° |
| 2026-05-01 08:22 | 41.84410 | 12.15383 | 3109 ft | 245 kts | 289° |
| 2026-05-01 08:23 | 41.84770 | 12.13173 | 4184 ft | 242 kts | 276° |
| 2026-05-01 08:23 | 41.84570 | 12.10800 | 4638 ft | 272 kts | 245° |
| 2026-05-01 08:23 | 41.83391 | 12.08879 | 5440 ft | 284 kts | 216° |
| 2026-05-01 08:23 | 41.81539 | 12.08003 | 6272 ft | 286 kts | 181° |
| 2026-05-01 08:24 | 41.79583 | 12.08418 | 7075 ft | 288 kts | 157° |
| 2026-05-01 08:24 | 41.77754 | 12.09552 | 7813 ft | 292 kts | 149° |
| 2026-05-01 08:24 | 41.75938 | 12.10848 | 8569 ft | 299 kts | 149° |
| 2026-05-01 08:24 | 41.74074 | 12.12160 | 9326 ft | 305 kts | 150° |
| 2026-05-01 08:25 | 41.72166 | 12.13467 | 10076 ft | 311 kts | 148° |
| 2026-05-01 08:25 | 41.70339 | 12.15099 | 10487 ft | 326 kts | 139° |
| 2026-05-01 08:25 | 41.68517 | 12.17103 | 10645 ft | 352 kts | 136° |
| 2026-05-01 08:25 | 41.66600 | 12.19337 | 10802 ft | 376 kts | 135° |
| 2026-05-01 08:26 | 41.64638 | 12.21684 | 11526 ft | 380 kts | 132° |
| 2026-05-01 08:26 | 41.62910 | 12.24344 | 12280 ft | 379 kts | 119° |
| 2026-05-01 08:26 | 41.61763 | 12.27489 | 13018 ft | 375 kts | 101° |
| 2026-05-01 08:26 | 41.61411 | 12.30846 | 13730 ft | 369 kts | 83° |
| 2026-05-01 08:27 | 41.61854 | 12.34176 | 14384 ft | 362 kts | 65° |
| 2026-05-01 08:27 | 41.63000 | 12.37131 | 15011 ft | 357 kts | 49° |
| 2026-05-01 08:27 | 41.64645 | 12.39602 | 15629 ft | 355 kts | 40° |
| 2026-05-01 08:27 | 41.66477 | 12.41840 | 16269 ft | 358 kts | 37° |
| 2026-05-01 08:28 | 41.68358 | 12.44039 | 16894 ft | 361 kts | 37° |
| 2026-05-01 08:28 | 41.70251 | 12.46269 | 17528 ft | 364 kts | 37° |
| 2026-05-01 08:28 | 41.72144 | 12.48542 | 18171 ft | 367 kts | 38° |
| 2026-05-01 08:28 | 41.74030 | 12.50845 | 18785 ft | 368 kts | 38° |
| 2026-05-01 08:29 | 41.75924 | 12.53184 | 19260 ft | 372 kts | 38° |
| 2026-05-01 08:29 | 41.77875 | 12.55483 | 19729 ft | 373 kts | 33° |
| 2026-05-01 08:29 | 41.80034 | 12.57405 | 20196 ft | 372 kts | 24° |
| 2026-05-01 08:29 | 41.82429 | 12.58657 | 20647 ft | 370 kts | 11° |
| 2026-05-01 08:30 | 41.84969 | 12.59166 | 21099 ft | 371 kts | 2° |
| 2026-05-01 08:30 | 41.87560 | 12.59265 | 21575 ft | 373 kts | 359° |
| 2026-05-01 08:30 | 41.90162 | 12.59245 | 22072 ft | 376 kts | 358° |
| 2026-05-01 08:30 | 41.92789 | 12.59217 | 22600 ft | 378 kts | 358° |
| 2026-05-01 08:31 | 41.95421 | 12.59213 | 23218 ft | 379 kts | 359° |
| 2026-05-01 08:31 | 41.98071 | 12.59234 | 23727 ft | 382 kts | 359° |
| 2026-05-01 08:31 | 42.00748 | 12.59275 | 24153 ft | 386 kts | 359° |
| 2026-05-01 08:31 | 42.03443 | 12.59330 | 24561 ft | 390 kts | 359° |
| 2026-05-01 08:32 | 42.06172 | 12.59396 | 25000 ft | 393 kts | 359° |
| 2026-05-01 08:32 | 42.08919 | 12.59466 | 25409 ft | 397 kts | 359° |
| 2026-05-01 08:32 | 42.11694 | 12.59539 | 25822 ft | 401 kts | 359° |
| 2026-05-01 08:32 | 42.14459 | 12.59611 | 26225 ft | 405 kts | 358° |
| 2026-05-01 08:33 | 42.17291 | 12.59686 | 26631 ft | 409 kts | 358° |
| 2026-05-01 08:33 | 42.20143 | 12.59761 | 27028 ft | 412 kts | 358° |
| 2026-05-01 08:33 | 42.23030 | 12.59890 | 27409 ft | 417 kts | 1° |
| 2026-05-01 08:33 | 42.25921 | 12.60488 | 27800 ft | 425 kts | 11° |
| 2026-05-01 08:34 | 42.28730 | 12.61876 | 28187 ft | 435 kts | 20° |
| 2026-05-01 08:34 | 42.31442 | 12.63751 | 28540 ft | 442 kts | 24° |
| 2026-05-01 08:34 | 42.34120 | 12.65815 | 29121 ft | 441 kts | 26° |
| 2026-05-01 08:34 | 42.36790 | 12.67909 | 29513 ft | 445 kts | 26° |
| 2026-05-01 08:35 | 42.39496 | 12.70001 | 29879 ft | 449 kts | 25° |
| 2026-05-01 08:35 | 42.42228 | 12.72072 | 30245 ft | 452 kts | 25° |
| 2026-05-01 08:35 | 42.44991 | 12.74134 | 30534 ft | 455 kts | 25° |
| 2026-05-01 08:35 | 42.47777 | 12.76193 | 30796 ft | 457 kts | 24° |
| 2026-05-01 08:36 | 42.50583 | 12.78259 | 31080 ft | 461 kts | 25° |
| 2026-05-01 08:36 | 42.53400 | 12.80331 | 31339 ft | 460 kts | 25° |
| 2026-05-01 08:36 | 42.56203 | 12.82398 | 31587 ft | 458 kts | 25° |
| 2026-05-01 08:36 | 42.59002 | 12.84464 | 31841 ft | 458 kts | 25° |
| 2026-05-01 08:37 | 42.61800 | 12.86531 | 32081 ft | 458 kts | 25° |
| 2026-05-01 08:37 | 42.64598 | 12.88601 | 32224 ft | 459 kts | 25° |
| 2026-05-01 08:37 | 42.67401 | 12.90676 | 32254 ft | 459 kts | 25° |
| 2026-05-01 08:38 | 42.73000 | 12.94829 | 32275 ft | 455 kts | 26° |
| 2026-05-01 08:38 | 42.78481 | 12.98904 | 32284 ft | 454 kts | 26° |
| 2026-05-01 08:39 | 42.84018 | 13.03027 | 32283 ft | 454 kts | 26° |
| 2026-05-01 08:39 | 42.89558 | 13.07160 | 32303 ft | 453 kts | 26° |
| 2026-05-01 08:40 | 42.97761 | 13.13298 | 32304 ft | 449 kts | 26° |
| 2026-05-01 08:40 | 43.03260 | 13.17437 | 32312 ft | 453 kts | 26° |
| 2026-05-01 08:41 | 43.08771 | 13.21603 | 32321 ft | 451 kts | 27° |
| 2026-05-01 08:41 | 43.14262 | 13.25747 | 32324 ft | 451 kts | 27° |
| 2026-05-01 08:42 | 43.19759 | 13.29898 | 32327 ft | 451 kts | 27° |
| 2026-05-01 08:42 | 43.24317 | 13.33344 | 32331 ft | 451 kts | 27° |
| 2026-05-01 08:43 | 43.29788 | 13.37488 | 32329 ft | 448 kts | 27° |
| 2026-05-01 08:43 | 43.35238 | 13.41626 | 32333 ft | 447 kts | 27° |
| 2026-05-01 08:44 | 43.40680 | 13.45766 | 32331 ft | 447 kts | 27° |
| 2026-05-01 08:44 | 43.46114 | 13.49907 | 32373 ft | 444 kts | 28° |
| 2026-05-01 08:45 | 43.51537 | 13.54051 | 32341 ft | 446 kts | 28° |
| 2026-05-01 08:45 | 43.56963 | 13.58205 | 32343 ft | 446 kts | 28° |
| 2026-05-01 08:46 | 43.62391 | 13.62368 | 32340 ft | 444 kts | 28° |
| 2026-05-01 08:46 | 43.67736 | 13.66477 | 32338 ft | 442 kts | 28° |
| 2026-05-01 08:47 | 43.73100 | 13.70611 | 32339 ft | 442 kts | 28° |
| 2026-05-01 08:47 | 43.78455 | 13.74772 | 32331 ft | 441 kts | 29° |
| 2026-05-01 08:48 | 43.83804 | 13.78926 | 32345 ft | 441 kts | 29° |
| 2026-05-01 08:48 | 43.89153 | 13.83077 | 32346 ft | 441 kts | 29° |
| 2026-05-01 08:49 | 43.94508 | 13.87236 | 32355 ft | 442 kts | 30° |
| 2026-05-01 08:49 | 43.99884 | 13.91419 | 32353 ft | 443 kts | 30° |
| 2026-05-01 08:50 | 44.05263 | 13.95615 | 32349 ft | 443 kts | 30° |
| 2026-05-01 08:50 | 44.10645 | 13.99821 | 32349 ft | 443 kts | 30° |
| 2026-05-01 08:51 | 44.15929 | 14.04243 | 32344 ft | 442 kts | 33° |
| 2026-05-01 08:51 | 44.21120 | 14.08844 | 32346 ft | 442 kts | 33° |
| 2026-05-01 08:52 | 44.26306 | 14.13457 | 32347 ft | 442 kts | 33° |
| 2026-05-01 08:52 | 44.31500 | 14.18063 | 32342 ft | 442 kts | 33° |
| 2026-05-01 08:53 | 44.36621 | 14.22603 | 32344 ft | 438 kts | 33° |
| 2026-05-01 08:53 | 44.41693 | 14.27110 | 32344 ft | 437 kts | 33° |
| 2026-05-01 08:54 | 44.46829 | 14.31683 | 32346 ft | 437 kts | 33° |
| 2026-05-01 08:54 | 44.51921 | 14.36225 | 32346 ft | 429 kts | 33° |
| 2026-05-01 08:55 | 44.56948 | 14.40719 | 32347 ft | 428 kts | 33° |
| 2026-05-01 08:55 | 44.61960 | 14.45210 | 32347 ft | 428 kts | 33° |
| 2026-05-01 08:56 | 44.66969 | 14.49707 | 32349 ft | 425 kts | 34° |
| 2026-05-01 08:56 | 44.71919 | 14.54160 | 32351 ft | 423 kts | 34° |
| 2026-05-01 08:57 | 44.76872 | 14.58625 | 32347 ft | 423 kts | 34° |
| 2026-05-01 08:57 | 44.81822 | 14.63099 | 32346 ft | 423 kts | 34° |
| 2026-05-01 08:58 | 44.86741 | 14.67582 | 32349 ft | 419 kts | 34° |
| 2026-05-01 08:58 | 44.91631 | 14.72040 | 32357 ft | 418 kts | 34° |
| 2026-05-01 08:59 | 44.96513 | 14.76486 | 32355 ft | 418 kts | 34° |
| 2026-05-01 08:59 | 45.01402 | 14.80939 | 32351 ft | 417 kts | 35° |
| 2026-05-01 09:00 | 45.06280 | 14.85390 | 32369 ft | 417 kts | 35° |
| 2026-05-01 09:00 | 45.11126 | 14.89824 | 32391 ft | 418 kts | 35° |
| 2026-05-01 09:01 | 45.16002 | 14.94293 | 32369 ft | 417 kts | 35° |
| 2026-05-01 09:01 | 45.20860 | 14.98753 | 32377 ft | 414 kts | 35° |
| 2026-05-01 09:02 | 45.25684 | 15.03192 | 32393 ft | 413 kts | 35° |
| 2026-05-01 09:02 | 45.30505 | 15.07639 | 32396 ft | 413 kts | 35° |
| 2026-05-01 09:03 | 45.35323 | 15.12092 | 32398 ft | 413 kts | 35° |
| 2026-05-01 09:03 | 45.40133 | 15.16545 | 32406 ft | 411 kts | 36° |
| 2026-05-01 09:04 | 45.44919 | 15.20987 | 32401 ft | 411 kts | 36° |
| 2026-05-01 09:04 | 45.49702 | 15.25435 | 32406 ft | 411 kts | 36° |
| 2026-05-01 09:05 | 45.54482 | 15.29907 | 32402 ft | 410 kts | 36° |
| 2026-05-01 09:05 | 45.59246 | 15.34387 | 32409 ft | 409 kts | 36° |
| 2026-05-01 09:06 | 45.63995 | 15.38843 | 32412 ft | 409 kts | 36° |
| 2026-05-01 09:06 | 45.68772 | 15.43324 | 32412 ft | 410 kts | 36° |
| 2026-05-01 09:07 | 45.73501 | 15.47766 | 32406 ft | 410 kts | 36° |
| 2026-05-01 09:07 | 45.78301 | 15.52285 | 32404 ft | 410 kts | 36° |
| 2026-05-01 09:08 | 45.83057 | 15.56772 | 32397 ft | 410 kts | 36° |
| 2026-05-01 09:08 | 45.87754 | 15.61212 | 32402 ft | 409 kts | 36° |
| 2026-05-01 09:09 | 45.92508 | 15.65715 | 32395 ft | 409 kts | 36° |
| 2026-05-01 09:09 | 45.97241 | 15.70229 | 32399 ft | 408 kts | 37° |
| 2026-05-01 09:10 | 46.01915 | 15.74875 | 32399 ft | 408 kts | 37° |
| 2026-05-01 09:10 | 46.06572 | 15.79556 | 32397 ft | 408 kts | 37° |
| 2026-05-01 09:11 | 46.11221 | 15.84225 | 32393 ft | 407 kts | 37° |
| 2026-05-01 09:11 | 46.15845 | 15.88870 | 32392 ft | 407 kts | 37° |
| 2026-05-01 09:12 | 46.20497 | 15.93550 | 32394 ft | 408 kts | 37° |
| 2026-05-01 09:12 | 46.25148 | 15.98238 | 32396 ft | 407 kts | 37° |
| 2026-05-01 09:13 | 46.29799 | 16.02937 | 32386 ft | 408 kts | 37° |
| 2026-05-01 09:13 | 46.34443 | 16.07638 | 32394 ft | 408 kts | 37° |
| 2026-05-01 09:14 | 46.39089 | 16.12352 | 32391 ft | 408 kts | 37° |
| 2026-05-01 09:14 | 46.43736 | 16.17077 | 32393 ft | 408 kts | 37° |
| 2026-05-01 09:15 | 46.48396 | 16.21825 | 32706 ft | 410 kts | 37° |
| 2026-05-01 09:15 | 46.50724 | 16.24200 | 33054 ft | 409 kts | 37° |
| 2026-05-01 09:15 | 46.53048 | 16.26575 | 33381 ft | 408 kts | 37° |
| 2026-05-01 09:16 | 46.55367 | 16.28946 | 33705 ft | 407 kts | 37° |
| 2026-05-01 09:16 | 46.57684 | 16.31318 | 34016 ft | 407 kts | 37° |
| 2026-05-01 09:16 | 46.59992 | 16.33684 | 34314 ft | 406 kts | 37° |
| 2026-05-01 09:17 | 46.64616 | 16.38432 | 34721 ft | 407 kts | 37° |
| 2026-05-01 09:17 | 46.66926 | 16.40825 | 34931 ft | 408 kts | 37° |
| 2026-05-01 09:17 | 46.71565 | 16.45639 | 35314 ft | 410 kts | 37° |
| 2026-05-01 09:18 | 46.78561 | 16.52881 | 35390 ft | 412 kts | 37° |
| 2026-05-01 09:19 | 46.85561 | 16.60132 | 35391 ft | 410 kts | 37° |
| 2026-05-01 09:20 | 46.92510 | 16.67355 | 35390 ft | 410 kts | 37° |
| 2026-05-01 09:21 | 47.01805 | 16.77052 | 35390 ft | 410 kts | 37° |
| 2026-05-01 09:21 | 47.08763 | 16.84339 | 35393 ft | 410 kts | 37° |
| 2026-05-01 09:22 | 47.18028 | 16.94079 | 35391 ft | 409 kts | 37° |
| 2026-05-01 09:23 | 47.24915 | 17.01348 | 35395 ft | 410 kts | 37° |
| 2026-05-01 09:24 | 47.31860 | 17.08701 | 35394 ft | 410 kts | 37° |
| 2026-05-01 09:25 | 47.41088 | 17.18579 | 35397 ft | 411 kts | 37° |
| 2026-05-01 09:26 | 47.48006 | 17.25971 | 35396 ft | 411 kts | 37° |
| 2026-05-01 09:26 | 47.54954 | 17.33409 | 35393 ft | 411 kts | 37° |
| 2026-05-01 09:27 | 47.61894 | 17.40864 | 35392 ft | 411 kts | 37° |
| 2026-05-01 09:28 | 47.66490 | 17.45889 | 35419 ft | 410 kts | 40° |
| 2026-05-01 09:28 | 47.70767 | 17.51466 | 35397 ft | 408 kts | 43° |
| 2026-05-01 09:29 | 47.76991 | 17.60094 | 35393 ft | 408 kts | 43° |
| 2026-05-01 09:30 | 47.83238 | 17.68704 | 35384 ft | 408 kts | 43° |
| 2026-05-01 09:30 | 47.88786 | 17.76344 | 35383 ft | 408 kts | 43° |
| 2026-05-01 09:31 | 47.92955 | 17.82099 | 35380 ft | 409 kts | 43° |
| 2026-05-01 09:32 | 47.99217 | 17.90769 | 35381 ft | 410 kts | 43° |
| 2026-05-01 09:32 | 48.05474 | 17.99462 | 35375 ft | 409 kts | 43° |
| 2026-05-01 09:33 | 48.09641 | 18.05269 | 35363 ft | 410 kts | 43° |
| 2026-05-01 09:34 | 48.15878 | 18.13985 | 35378 ft | 411 kts | 43° |
| 2026-05-01 09:34 | 48.22143 | 18.22771 | 35373 ft | 411 kts | 43° |
| 2026-05-01 09:35 | 48.28394 | 18.31583 | 35377 ft | 410 kts | 44° |
| 2026-05-01 09:36 | 48.32523 | 18.37470 | 35367 ft | 409 kts | 44° |
| 2026-05-01 09:36 | 48.36660 | 18.43351 | 35365 ft | 409 kts | 44° |
| 2026-05-01 09:37 | 48.40796 | 18.49223 | 35365 ft | 409 kts | 44° |
| 2026-05-01 09:37 | 48.47009 | 18.58061 | 35359 ft | 409 kts | 43° |
| 2026-05-01 09:38 | 48.53161 | 18.66840 | 35353 ft | 409 kts | 44° |
| 2026-05-01 09:39 | 48.59362 | 18.75723 | 35355 ft | 410 kts | 44° |
| 2026-05-01 09:39 | 48.63488 | 18.81651 | 35352 ft | 410 kts | 44° |
| 2026-05-01 09:40 | 48.69649 | 18.90528 | 35356 ft | 410 kts | 44° |
| 2026-05-01 09:41 | 48.73775 | 18.96491 | 35356 ft | 410 kts | 44° |
| 2026-05-01 09:41 | 48.79959 | 19.05454 | 35352 ft | 410 kts | 44° |
| 2026-05-01 09:42 | 48.84073 | 19.11436 | 35333 ft | 411 kts | 43° |
| 2026-05-01 09:43 | 48.92310 | 19.23526 | 35350 ft | 411 kts | 44° |
| 2026-05-01 09:43 | 48.96413 | 19.29568 | 35348 ft | 410 kts | 44° |
| 2026-05-01 09:44 | 49.02573 | 19.38625 | 35336 ft | 412 kts | 44° |
| 2026-05-01 09:45 | 49.06691 | 19.44692 | 35339 ft | 412 kts | 44° |
| 2026-05-01 09:45 | 49.12872 | 19.53826 | 35347 ft | 412 kts | 44° |
| 2026-05-01 09:46 | 49.16955 | 19.59878 | 35346 ft | 412 kts | 44° |
| 2026-05-01 09:46 | 49.21068 | 19.65993 | 35349 ft | 412 kts | 44° |
| 2026-05-01 09:47 | 49.25185 | 19.72124 | 35333 ft | 413 kts | 44° |
| 2026-05-01 09:47 | 49.29296 | 19.78260 | 35340 ft | 412 kts | 44° |
| 2026-05-01 09:48 | 49.33431 | 19.84335 | 35345 ft | 412 kts | 43° |
| 2026-05-01 09:48 | 49.37601 | 19.90362 | 35342 ft | 412 kts | 43° |
| 2026-05-01 09:49 | 49.41776 | 19.96387 | 35348 ft | 412 kts | 43° |
| 2026-05-01 09:49 | 49.45944 | 20.02417 | 35349 ft | 412 kts | 43° |
| 2026-05-01 09:50 | 49.50112 | 20.08462 | 35349 ft | 412 kts | 43° |
| 2026-05-01 09:50 | 49.54261 | 20.14497 | 35342 ft | 409 kts | 43° |
| 2026-05-01 09:51 | 49.58401 | 20.20532 | 35347 ft | 411 kts | 43° |
| 2026-05-01 09:51 | 49.62546 | 20.26590 | 35347 ft | 411 kts | 43° |
| 2026-05-01 09:52 | 49.66693 | 20.32666 | 35341 ft | 411 kts | 43° |
| 2026-05-01 09:52 | 49.70832 | 20.38746 | 35343 ft | 411 kts | 43° |
| 2026-05-01 09:53 | 49.74965 | 20.44831 | 35342 ft | 411 kts | 43° |
| 2026-05-01 09:53 | 49.79019 | 20.50816 | 35346 ft | 411 kts | 43° |
| 2026-05-01 09:54 | 49.83154 | 20.56933 | 35344 ft | 411 kts | 43° |
| 2026-05-01 09:54 | 49.87284 | 20.63059 | 35347 ft | 411 kts | 43° |
| 2026-05-01 09:55 | 49.91401 | 20.69201 | 35347 ft | 411 kts | 43° |
| 2026-05-01 09:55 | 49.95527 | 20.75351 | 35346 ft | 411 kts | 43° |
| 2026-05-01 09:56 | 49.99692 | 20.81438 | 35347 ft | 411 kts | 42° |
| 2026-05-01 09:56 | 50.03870 | 20.87525 | 35347 ft | 411 kts | 42° |
| 2026-05-01 09:57 | 50.08046 | 20.93622 | 35346 ft | 412 kts | 42° |
| 2026-05-01 09:57 | 50.12218 | 20.99731 | 35346 ft | 411 kts | 43° |
| 2026-05-01 09:58 | 50.16332 | 21.05932 | 35347 ft | 411 kts | 43° |
| 2026-05-01 09:58 | 50.20412 | 21.12186 | 35354 ft | 409 kts | 43° |
| 2026-05-01 09:59 | 50.24471 | 21.18415 | 35345 ft | 409 kts | 43° |
| 2026-05-01 09:59 | 50.28527 | 21.24644 | 35347 ft | 409 kts | 43° |
| 2026-05-01 10:00 | 50.32580 | 21.30880 | 35347 ft | 409 kts | 43° |
| 2026-05-01 10:00 | 50.36602 | 21.37084 | 35349 ft | 409 kts | 43° |
| 2026-05-01 10:01 | 50.40656 | 21.43353 | 35344 ft | 409 kts | 43° |
| 2026-05-01 10:01 | 50.44702 | 21.49626 | 35344 ft | 409 kts | 44° |
| 2026-05-01 10:02 | 50.48750 | 21.55917 | 35344 ft | 409 kts | 44° |
| 2026-05-01 10:02 | 50.52788 | 21.62210 | 35343 ft | 409 kts | 44° |
| 2026-05-01 10:03 | 50.56825 | 21.68516 | 35341 ft | 409 kts | 44° |
| 2026-05-01 10:03 | 50.60857 | 21.74832 | 35344 ft | 409 kts | 44° |
| 2026-05-01 10:04 | 50.64883 | 21.81160 | 35341 ft | 409 kts | 44° |
| 2026-05-01 10:04 | 50.68926 | 21.87487 | 35339 ft | 409 kts | 43° |
| 2026-05-01 10:05 | 50.72968 | 21.93802 | 35341 ft | 409 kts | 43° |
| 2026-05-01 10:05 | 50.77008 | 22.00124 | 35338 ft | 409 kts | 43° |
| 2026-05-01 10:06 | 50.81047 | 22.06457 | 35338 ft | 409 kts | 43° |
| 2026-05-01 10:06 | 50.85069 | 22.12809 | 35339 ft | 409 kts | 44° |
| 2026-05-01 10:07 | 50.89079 | 22.19162 | 35337 ft | 407 kts | 43° |
| 2026-05-01 10:07 | 50.93057 | 22.25467 | 35334 ft | 407 kts | 43° |
| 2026-05-01 10:08 | 50.99011 | 22.34925 | 35328 ft | 407 kts | 43° |
| 2026-05-01 10:09 | 51.03008 | 22.41294 | 35327 ft | 407 kts | 43° |
| 2026-05-01 10:09 | 51.07003 | 22.47677 | 35322 ft | 407 kts | 43° |
| 2026-05-01 10:10 | 51.10999 | 22.54077 | 35322 ft | 407 kts | 43° |
| 2026-05-01 10:10 | 51.16977 | 22.63684 | 35318 ft | 407 kts | 43° |
| 2026-05-01 10:11 | 51.20961 | 22.70107 | 35319 ft | 407 kts | 44° |
| 2026-05-01 10:11 | 51.24943 | 22.76544 | 35318 ft | 407 kts | 44° |
| 2026-05-01 10:12 | 51.28248 | 22.81901 | 35319 ft | 407 kts | 44° |
| 2026-05-01 10:13 | 51.34880 | 22.92682 | 35313 ft | 407 kts | 44° |
| 2026-05-01 10:13 | 51.38847 | 22.99154 | 35313 ft | 407 kts | 44° |
| 2026-05-01 10:14 | 51.44769 | 23.08933 | 35309 ft | 407 kts | 44° |
| 2026-05-01 10:14 | 51.48713 | 23.15452 | 35310 ft | 407 kts | 44° |
| 2026-05-01 10:15 | 51.52664 | 23.21969 | 35305 ft | 407 kts | 44° |
| 2026-05-01 10:15 | 51.56584 | 23.28442 | 35304 ft | 406 kts | 44° |
| 2026-05-01 10:16 | 51.60541 | 23.34991 | 35305 ft | 406 kts | 44° |
| 2026-05-01 10:17 | 51.66406 | 23.44732 | 35301 ft | 406 kts | 44° |
| 2026-05-01 10:17 | 51.72287 | 23.54539 | 35297 ft | 405 kts | 44° |
| 2026-05-01 10:18 | 51.77559 | 23.65287 | 35297 ft | 408 kts | 51° |
| 2026-05-01 10:19 | 51.80860 | 23.72759 | 35295 ft | 408 kts | 51° |
| 2026-05-01 10:19 | 51.83613 | 23.78959 | 35291 ft | 409 kts | 51° |
| 2026-05-01 10:20 | 51.88607 | 23.90149 | 35287 ft | 409 kts | 51° |
| 2026-05-01 10:20 | 51.91937 | 23.97618 | 35286 ft | 409 kts | 51° |
| 2026-05-01 10:21 | 51.96921 | 24.08840 | 35287 ft | 409 kts | 51° |
| 2026-05-01 10:22 | 52.01898 | 24.20094 | 35326 ft | 409 kts | 51° |
| 2026-05-01 10:23 | 52.06847 | 24.31338 | 35292 ft | 408 kts | 51° |
| 2026-05-01 10:23 | 52.11747 | 24.42514 | 35292 ft | 408 kts | 51° |
| 2026-05-01 10:24 | 52.18315 | 24.57577 | 35305 ft | 408 kts | 51° |
| 2026-05-01 10:25 | 52.24845 | 24.72743 | 35300 ft | 409 kts | 51° |
| 2026-05-01 10:26 | 52.28097 | 24.80352 | 35303 ft | 409 kts | 51° |
| 2026-05-01 10:27 | 52.34637 | 24.95546 | 35303 ft | 408 kts | 49° |
| 2026-05-01 10:27 | 52.38660 | 25.01953 | 35299 ft | 403 kts | 36° |
| 2026-05-01 10:28 | 52.40903 | 25.04720 | 35297 ft | 403 kts | 35° |
| 2026-05-01 10:28 | 52.47662 | 25.12855 | 35302 ft | 403 kts | 36° |
| 2026-05-01 10:29 | 52.54380 | 25.21186 | 35297 ft | 403 kts | 36° |
| 2026-05-01 10:30 | 52.63309 | 25.32400 | 35300 ft | 404 kts | 36° |
| 2026-05-01 10:31 | 52.72223 | 25.43658 | 35297 ft | 404 kts | 36° |
| 2026-05-01 10:32 | 52.78903 | 25.52132 | 35296 ft | 404 kts | 36° |
| 2026-05-01 10:33 | 52.87803 | 25.63474 | 35286 ft | 404 kts | 36° |
| 2026-05-01 10:34 | 52.94177 | 25.72592 | 35283 ft | 407 kts | 47° |
| 2026-05-01 10:34 | 52.97547 | 25.80213 | 35287 ft | 411 kts | 51° |
| 2026-05-01 10:35 | 53.02415 | 25.91929 | 35288 ft | 411 kts | 51° |
| 2026-05-01 10:35 | 53.05686 | 25.99652 | 35283 ft | 411 kts | 50° |
| 2026-05-01 10:36 | 53.10632 | 26.11282 | 35287 ft | 411 kts | 50° |
| 2026-05-01 10:37 | 53.13933 | 26.19064 | 35283 ft | 411 kts | 51° |
| 2026-05-01 10:37 | 53.18868 | 26.30744 | 35279 ft | 411 kts | 51° |
| 2026-05-01 10:38 | 53.22151 | 26.38547 | 35279 ft | 411 kts | 51° |
| 2026-05-01 10:38 | 53.25390 | 26.46268 | 35279 ft | 411 kts | 51° |
| 2026-05-01 10:39 | 53.28649 | 26.54116 | 35303 ft | 411 kts | 51° |
| 2026-05-01 10:39 | 53.31891 | 26.62009 | 35278 ft | 413 kts | 51° |
| 2026-05-01 10:40 | 53.35133 | 26.69883 | 35265 ft | 414 kts | 51° |
| 2026-05-01 10:40 | 53.38399 | 26.77816 | 35281 ft | 414 kts | 51° |
| 2026-05-01 10:41 | 53.41662 | 26.85760 | 35287 ft | 414 kts | 51° |
| 2026-05-01 10:42 | 53.46542 | 26.97696 | 35263 ft | 414 kts | 51° |
| 2026-05-01 10:42 | 53.49792 | 27.05678 | 35272 ft | 414 kts | 51° |
| 2026-05-01 10:43 | 53.53044 | 27.13658 | 35267 ft | 414 kts | 51° |
| 2026-05-01 10:43 | 53.56297 | 27.21652 | 35268 ft | 414 kts | 51° |
| 2026-05-01 10:44 | 53.59546 | 27.29659 | 35264 ft | 414 kts | 51° |
| 2026-05-01 10:44 | 53.62791 | 27.37680 | 35265 ft | 414 kts | 51° |
| 2026-05-01 10:45 | 53.66028 | 27.45708 | 35262 ft | 414 kts | 51° |
| 2026-05-01 10:45 | 53.69252 | 27.53731 | 35261 ft | 413 kts | 51° |
| 2026-05-01 10:46 | 53.72451 | 27.61715 | 35272 ft | 412 kts | 52° |
| 2026-05-01 10:46 | 53.75658 | 27.69746 | 35265 ft | 412 kts | 52° |
| 2026-05-01 10:47 | 53.78859 | 27.77785 | 35262 ft | 412 kts | 52° |
| 2026-05-01 10:47 | 53.82053 | 27.85835 | 35271 ft | 412 kts | 52° |
| 2026-05-01 10:48 | 53.85244 | 27.93902 | 35265 ft | 412 kts | 52° |
| 2026-05-01 10:48 | 53.88539 | 28.01825 | 35265 ft | 409 kts | 47° |
| 2026-05-01 10:49 | 53.92336 | 28.08978 | 35266 ft | 408 kts | 43° |
| 2026-05-01 10:49 | 53.96254 | 28.15938 | 35257 ft | 408 kts | 43° |
| 2026-05-01 10:50 | 54.00155 | 28.22921 | 35257 ft | 408 kts | 44° |
| 2026-05-01 10:50 | 54.04039 | 28.29946 | 35255 ft | 407 kts | 44° |
| 2026-05-01 10:51 | 54.07916 | 28.36995 | 35254 ft | 407 kts | 44° |
| 2026-05-01 10:51 | 54.11785 | 28.44053 | 35256 ft | 408 kts | 44° |
| 2026-05-01 10:52 | 54.15649 | 28.51122 | 35252 ft | 408 kts | 44° |
| 2026-05-01 10:52 | 54.19511 | 28.58208 | 35248 ft | 408 kts | 44° |
| 2026-05-01 10:53 | 54.23343 | 28.65261 | 35252 ft | 408 kts | 44° |
| 2026-05-01 10:53 | 54.27152 | 28.72290 | 35250 ft | 408 kts | 44° |
| 2026-05-01 10:54 | 54.31006 | 28.79425 | 35247 ft | 408 kts | 44° |
| 2026-05-01 10:54 | 54.34854 | 28.86569 | 35244 ft | 408 kts | 44° |
| 2026-05-01 10:55 | 54.38691 | 28.93739 | 35246 ft | 408 kts | 44° |
| 2026-05-01 10:55 | 54.42520 | 29.00960 | 35248 ft | 409 kts | 44° |
| 2026-05-01 10:56 | 54.46362 | 29.08179 | 35244 ft | 409 kts | 44° |
| 2026-05-01 10:56 | 54.50209 | 29.15401 | 35240 ft | 409 kts | 44° |
| 2026-05-01 10:57 | 54.54055 | 29.22635 | 35243 ft | 409 kts | 44° |
| 2026-05-01 10:57 | 54.57895 | 29.29879 | 35239 ft | 409 kts | 44° |
| 2026-05-01 10:58 | 54.61734 | 29.37142 | 35239 ft | 409 kts | 44° |
| 2026-05-01 10:58 | 54.65567 | 29.44418 | 35237 ft | 410 kts | 44° |
| 2026-05-01 10:59 | 54.69346 | 29.51796 | 35240 ft | 411 kts | 47° |
| 2026-05-01 10:59 | 54.72855 | 29.59539 | 35234 ft | 412 kts | 48° |
| 2026-05-01 11:00 | 54.76327 | 29.67403 | 35236 ft | 412 kts | 48° |
| 2026-05-01 11:00 | 54.79813 | 29.75279 | 35236 ft | 412 kts | 48° |
| 2026-05-01 11:01 | 54.83308 | 29.83158 | 35236 ft | 412 kts | 48° |
| 2026-05-01 11:01 | 54.86798 | 29.91046 | 35232 ft | 412 kts | 48° |
| 2026-05-01 11:02 | 54.90284 | 29.98945 | 35234 ft | 412 kts | 48° |
| 2026-05-01 11:02 | 54.93765 | 30.06859 | 35234 ft | 412 kts | 48° |
| 2026-05-01 11:03 | 54.97241 | 30.14789 | 35238 ft | 412 kts | 48° |
| 2026-05-01 11:03 | 55.00710 | 30.22727 | 35238 ft | 412 kts | 48° |
| 2026-05-01 11:04 | 55.04174 | 30.30680 | 35236 ft | 412 kts | 48° |
| 2026-05-01 11:04 | 55.07638 | 30.38658 | 35238 ft | 412 kts | 49° |
| 2026-05-01 11:05 | 55.11095 | 30.46646 | 35244 ft | 413 kts | 49° |
| 2026-05-01 11:05 | 55.14554 | 30.54664 | 35244 ft | 414 kts | 49° |
| 2026-05-01 11:06 | 55.18015 | 30.62713 | 35231 ft | 414 kts | 49° |
| 2026-05-01 11:06 | 55.21424 | 30.70765 | 35236 ft | 414 kts | 49° |
| 2026-05-01 11:07 | 55.26569 | 30.82940 | 35233 ft | 414 kts | 49° |
| 2026-05-01 11:07 | 55.29755 | 30.91407 | 35237 ft | 419 kts | 56° |
| 2026-05-01 11:08 | 55.32409 | 31.00540 | 35237 ft | 421 kts | 58° |
| 2026-05-01 11:09 | 55.35826 | 31.12743 | 35234 ft | 422 kts | 58° |
| 2026-05-01 11:09 | 55.38444 | 31.21988 | 35232 ft | 422 kts | 58° |
| 2026-05-01 11:10 | 55.42375 | 31.35847 | 35241 ft | 422 kts | 58° |
| 2026-05-01 11:10 | 55.44989 | 31.45097 | 35237 ft | 422 kts | 58° |
| 2026-05-01 11:11 | 55.47596 | 31.54361 | 35244 ft | 422 kts | 58° |
| 2026-05-01 11:11 | 55.50196 | 31.63643 | 35249 ft | 421 kts | 58° |
| 2026-05-01 11:12 | 55.52786 | 31.72925 | 35236 ft | 421 kts | 58° |
| 2026-05-01 11:12 | 55.55366 | 31.82206 | 35236 ft | 421 kts | 58° |
| 2026-05-01 11:13 | 55.57940 | 31.91506 | 35236 ft | 421 kts | 58° |
| 2026-05-01 11:13 | 55.60509 | 32.00822 | 35236 ft | 421 kts | 58° |
| 2026-05-01 11:14 | 55.63073 | 32.10157 | 35240 ft | 422 kts | 58° |
| 2026-05-01 11:14 | 55.65629 | 32.19528 | 35236 ft | 423 kts | 59° |
| 2026-05-01 11:15 | 55.68142 | 32.28958 | 35238 ft | 423 kts | 59° |
| 2026-05-01 11:15 | 55.70662 | 32.38365 | 35234 ft | 423 kts | 59° |
| 2026-05-01 11:16 | 55.73199 | 32.47787 | 35231 ft | 423 kts | 59° |
| 2026-05-01 11:16 | 55.75715 | 32.57141 | 35230 ft | 423 kts | 59° |
| 2026-05-01 11:17 | 55.78256 | 32.66626 | 35242 ft | 421 kts | 59° |
| 2026-05-01 11:17 | 55.80748 | 32.75967 | 35229 ft | 421 kts | 59° |
| 2026-05-01 11:18 | 55.83252 | 32.85389 | 35230 ft | 421 kts | 59° |
| 2026-05-01 11:18 | 55.85781 | 32.94777 | 35230 ft | 420 kts | 57° |
| 2026-05-01 11:19 | 55.88516 | 33.03938 | 35231 ft | 419 kts | 56° |
| 2026-05-01 11:19 | 55.91315 | 33.13022 | 35230 ft | 419 kts | 56° |
| 2026-05-01 11:20 | 55.94114 | 33.22138 | 35231 ft | 419 kts | 56° |
| 2026-05-01 11:20 | 55.96901 | 33.31273 | 35219 ft | 419 kts | 56° |
| 2026-05-01 11:21 | 55.99680 | 33.40429 | 35229 ft | 419 kts | 56° |
| 2026-05-01 11:21 | 56.02454 | 33.49608 | 35222 ft | 420 kts | 56° |
| 2026-05-01 11:22 | 56.05220 | 33.58794 | 35218 ft | 419 kts | 56° |
| 2026-05-01 11:22 | 56.07980 | 33.67998 | 35219 ft | 420 kts | 56° |
| 2026-05-01 11:23 | 56.10720 | 33.77168 | 35250 ft | 421 kts | 57° |
| 2026-05-01 11:23 | 56.13441 | 33.86314 | 35219 ft | 421 kts | 57° |
| 2026-05-01 11:24 | 56.16189 | 33.95584 | 35217 ft | 421 kts | 57° |
| 2026-05-01 11:25 | 56.20297 | 34.09513 | 35216 ft | 421 kts | 57° |
| 2026-05-01 11:25 | 56.24391 | 34.23485 | 35218 ft | 422 kts | 57° |
| 2026-05-01 11:26 | 56.28417 | 34.37564 | 35211 ft | 422 kts | 57° |
| 2026-05-01 11:27 | 56.31117 | 34.46944 | 35214 ft | 422 kts | 57° |
| 2026-05-01 11:27 | 56.33820 | 34.56337 | 35210 ft | 422 kts | 57° |
| 2026-05-01 11:28 | 56.36519 | 34.65723 | 35207 ft | 422 kts | 57° |
| 2026-05-01 11:28 | 56.39223 | 34.75144 | 35210 ft | 423 kts | 57° |
| 2026-05-01 11:29 | 56.43265 | 34.89294 | 35211 ft | 423 kts | 57° |
| 2026-05-01 11:30 | 56.47286 | 35.03547 | 35213 ft | 427 kts | 58° |
| 2026-05-01 11:30 | 56.49969 | 35.13155 | 35206 ft | 428 kts | 58° |
| 2026-05-01 11:31 | 56.52658 | 35.22792 | 35200 ft | 428 kts | 58° |
| 2026-05-01 11:31 | 56.55342 | 35.32435 | 35200 ft | 428 kts | 58° |
| 2026-05-01 11:32 | 56.58016 | 35.42084 | 35196 ft | 428 kts | 58° |
| 2026-05-01 11:32 | 56.60687 | 35.51756 | 35197 ft | 428 kts | 58° |
| 2026-05-01 11:33 | 56.63335 | 35.61366 | 35198 ft | 428 kts | 59° |
| 2026-05-01 11:33 | 56.65984 | 35.71075 | 35197 ft | 428 kts | 59° |
| 2026-05-01 11:34 | 56.68627 | 35.80791 | 35183 ft | 429 kts | 59° |
| 2026-05-01 11:34 | 56.71277 | 35.90539 | 35197 ft | 430 kts | 59° |
| 2026-05-01 11:35 | 56.73926 | 36.00306 | 35194 ft | 430 kts | 59° |
| 2026-05-01 11:35 | 56.76565 | 36.10097 | 35190 ft | 430 kts | 59° |
| 2026-05-01 11:36 | 56.79198 | 36.19891 | 35191 ft | 430 kts | 59° |
| 2026-05-01 11:36 | 56.81843 | 36.29757 | 35189 ft | 436 kts | 60° |
| 2026-05-01 11:37 | 56.84506 | 36.39759 | 35189 ft | 439 kts | 60° |
| 2026-05-01 11:37 | 56.87176 | 36.49815 | 35290 ft | 440 kts | 60° |
| 2026-05-01 11:37 | 56.88513 | 36.54861 | 35506 ft | 442 kts | 60° |
| 2026-05-01 11:38 | 56.89849 | 36.59930 | 35713 ft | 443 kts | 60° |
| 2026-05-01 11:38 | 56.91183 | 36.65020 | 35921 ft | 444 kts | 60° |
| 2026-05-01 11:38 | 56.92488 | 36.70006 | 36115 ft | 445 kts | 61° |
| 2026-05-01 11:38 | 56.93828 | 36.75131 | 36313 ft | 446 kts | 61° |
| 2026-05-01 11:39 | 56.95167 | 36.80257 | 36505 ft | 447 kts | 61° |
| 2026-05-01 11:39 | 56.96507 | 36.85406 | 36696 ft | 448 kts | 61° |
| 2026-05-01 11:39 | 56.97847 | 36.90580 | 36882 ft | 450 kts | 61° |
| 2026-05-01 11:39 | 56.99184 | 36.95755 | 37099 ft | 450 kts | 61° |
| 2026-05-01 11:40 | 57.00525 | 37.00953 | 37161 ft | 451 kts | 61° |
| 2026-05-01 11:40 | 57.03194 | 37.11309 | 37176 ft | 452 kts | 61° |
| 2026-05-01 11:41 | 57.05876 | 37.21754 | 37182 ft | 452 kts | 62° |
| 2026-05-01 11:41 | 57.08551 | 37.32219 | 37177 ft | 452 kts | 62° |
| 2026-05-01 11:42 | 57.11217 | 37.42698 | 37178 ft | 452 kts | 62° |
| 2026-05-01 11:42 | 57.13878 | 37.53207 | 37178 ft | 453 kts | 62° |
| 2026-05-01 11:43 | 57.16528 | 37.63762 | 37167 ft | 454 kts | 63° |
| 2026-05-01 11:43 | 57.18890 | 37.74578 | 37177 ft | 456 kts | 66° |
| 2026-05-01 11:44 | 57.22214 | 37.91005 | 37176 ft | 456 kts | 66° |
| 2026-05-01 11:44 | 57.24427 | 38.01888 | 37176 ft | 456 kts | 66° |
| 2026-05-01 11:45 | 57.26674 | 38.12922 | 37171 ft | 456 kts | 66° |
| 2026-05-01 11:45 | 57.28885 | 38.23822 | 37171 ft | 456 kts | 66° |
| 2026-05-01 11:46 | 57.31092 | 38.34822 | 37167 ft | 456 kts | 66° |
| 2026-05-01 11:46 | 57.33282 | 38.45928 | 37168 ft | 456 kts | 66° |
| 2026-05-01 11:47 | 57.35460 | 38.56960 | 37167 ft | 456 kts | 66° |
| 2026-05-01 11:47 | 57.37624 | 38.67933 | 37190 ft | 458 kts | 67° |
| 2026-05-01 11:48 | 57.39808 | 38.79049 | 37167 ft | 460 kts | 67° |
| 2026-05-01 11:48 | 57.41986 | 38.90206 | 37167 ft | 460 kts | 67° |
| 2026-05-01 11:49 | 57.44153 | 39.01373 | 37165 ft | 460 kts | 67° |
| 2026-05-01 11:49 | 57.46312 | 39.12562 | 37166 ft | 460 kts | 67° |
| 2026-05-01 11:50 | 57.48713 | 39.23524 | 37164 ft | 456 kts | 58° |
| 2026-05-01 11:50 | 57.52630 | 39.32626 | 37172 ft | 451 kts | 40° |
| 2026-05-01 11:51 | 57.57498 | 39.39985 | 37173 ft | 451 kts | 37° |
| 2026-05-01 11:51 | 57.62371 | 39.47359 | 37169 ft | 451 kts | 39° |
| 2026-05-01 11:52 | 57.67132 | 39.55007 | 37175 ft | 451 kts | 40° |
| 2026-05-01 11:52 | 57.71843 | 39.62776 | 37185 ft | 451 kts | 40° |
| 2026-05-01 11:53 | 57.76547 | 39.70581 | 37176 ft | 452 kts | 40° |
| 2026-05-01 11:53 | 57.81196 | 39.78317 | 37177 ft | 452 kts | 40° |
| 2026-05-01 11:54 | 57.85874 | 39.86121 | 37177 ft | 452 kts | 40° |
| 2026-05-01 11:54 | 57.90550 | 39.94038 | 37175 ft | 452 kts | 40° |
| 2026-05-01 11:55 | 57.95216 | 40.01990 | 37177 ft | 453 kts | 40° |
| 2026-05-01 11:55 | 57.99892 | 40.09955 | 37176 ft | 453 kts | 40° |
| 2026-05-01 11:56 | 58.03810 | 40.16641 | 37173 ft | 453 kts | 40° |
| 2026-05-01 11:56 | 58.08482 | 40.24638 | 37172 ft | 453 kts | 41° |
| 2026-05-01 11:57 | 58.13119 | 40.32605 | 37174 ft | 453 kts | 41° |
| 2026-05-01 11:57 | 58.17593 | 40.41009 | 37172 ft | 455 kts | 50° |
| 2026-05-01 11:58 | 58.21036 | 40.51112 | 37172 ft | 458 kts | 58° |
| 2026-05-01 11:59 | 58.25732 | 40.66923 | 37173 ft | 458 kts | 57° |
| 2026-05-01 11:59 | 58.28931 | 40.77403 | 37174 ft | 458 kts | 57° |
| 2026-05-01 12:00 | 58.33765 | 40.93089 | 37176 ft | 458 kts | 57° |
| 2026-05-01 12:01 | 58.38589 | 41.08833 | 37173 ft | 458 kts | 57° |
| 2026-05-01 12:01 | 58.41790 | 41.19342 | 37171 ft | 459 kts | 57° |
| 2026-05-01 12:02 | 58.44984 | 41.29881 | 37167 ft | 459 kts | 57° |
| 2026-05-01 12:02 | 58.48174 | 41.40453 | 37177 ft | 459 kts | 57° |
| 2026-05-01 12:03 | 58.51357 | 41.51050 | 37166 ft | 460 kts | 57° |
| 2026-05-01 12:03 | 58.54531 | 41.61666 | 37166 ft | 460 kts | 57° |
| 2026-05-01 12:04 | 58.57700 | 41.72311 | 37162 ft | 460 kts | 58° |
| 2026-05-01 12:04 | 58.60844 | 41.83042 | 37166 ft | 462 kts | 58° |
| 2026-05-01 12:05 | 58.63967 | 41.93825 | 37165 ft | 463 kts | 58° |
| 2026-05-01 12:05 | 58.68679 | 42.09972 | 37161 ft | 464 kts | 58° |
| 2026-05-01 12:06 | 58.71840 | 42.20813 | 37161 ft | 464 kts | 58° |
| 2026-05-01 12:06 | 58.74988 | 42.31657 | 37165 ft | 464 kts | 58° |
| 2026-05-01 12:07 | 58.78124 | 42.42536 | 37157 ft | 464 kts | 58° |
| 2026-05-01 12:07 | 58.81246 | 42.53467 | 37161 ft | 465 kts | 59° |
| 2026-05-01 12:08 | 58.84372 | 42.64405 | 37155 ft | 466 kts | 58° |
| 2026-05-01 12:08 | 58.87464 | 42.75233 | 37155 ft | 466 kts | 59° |
| 2026-05-01 12:09 | 58.90587 | 42.86215 | 37150 ft | 466 kts | 59° |
| 2026-05-01 12:09 | 58.93701 | 42.97216 | 37157 ft | 466 kts | 59° |
| 2026-05-01 12:10 | 58.98357 | 43.13765 | 37156 ft | 467 kts | 59° |
| 2026-05-01 12:11 | 59.03006 | 43.30414 | 37154 ft | 468 kts | 59° |
| 2026-05-01 12:11 | 59.06074 | 43.41466 | 37154 ft | 468 kts | 59° |
| 2026-05-01 12:12 | 59.09152 | 43.52611 | 37146 ft | 468 kts | 59° |
| 2026-05-01 12:12 | 59.12220 | 43.63774 | 37158 ft | 468 kts | 59° |
| 2026-05-01 12:13 | 59.15286 | 43.74982 | 37151 ft | 469 kts | 59° |
| 2026-05-01 12:13 | 59.18321 | 43.86232 | 37155 ft | 469 kts | 60° |
| 2026-05-01 12:14 | 59.21328 | 43.97566 | 37149 ft | 471 kts | 60° |
| 2026-05-01 12:14 | 59.24358 | 44.08904 | 37149 ft | 471 kts | 60° |
| 2026-05-01 12:15 | 59.27255 | 44.20414 | 37150 ft | 473 kts | 65° |
| 2026-05-01 12:15 | 59.29658 | 44.32417 | 37146 ft | 475 kts | 67° |
| 2026-05-01 12:16 | 59.31953 | 44.44544 | 37140 ft | 475 kts | 67° |
| 2026-05-01 12:16 | 59.34267 | 44.56661 | 37140 ft | 475 kts | 67° |
| 2026-05-01 12:17 | 59.36578 | 44.68696 | 37138 ft | 475 kts | 67° |
| 2026-05-01 12:17 | 59.38898 | 44.80814 | 37144 ft | 475 kts | 67° |
| 2026-05-01 12:18 | 59.41211 | 44.92977 | 37139 ft | 476 kts | 67° |
| 2026-05-01 12:18 | 59.43515 | 45.05176 | 37138 ft | 476 kts | 67° |
| 2026-05-01 12:19 | 59.45805 | 45.17374 | 37133 ft | 476 kts | 67° |
| 2026-05-01 12:19 | 59.48084 | 45.29598 | 37135 ft | 476 kts | 68° |
| 2026-05-01 12:20 | 59.50356 | 45.41857 | 37135 ft | 476 kts | 68° |
| 2026-05-01 12:20 | 59.52641 | 45.54119 | 37131 ft | 478 kts | 67° |
| 2026-05-01 12:21 | 59.55019 | 45.66377 | 37128 ft | 480 kts | 67° |
| 2026-05-01 12:21 | 59.57439 | 45.78634 | 37124 ft | 480 kts | 67° |
| 2026-05-01 12:22 | 59.59857 | 45.90906 | 37124 ft | 480 kts | 67° |
| 2026-05-01 12:22 | 59.62260 | 46.03193 | 37121 ft | 480 kts | 67° |
| 2026-05-01 12:23 | 59.64650 | 46.15504 | 37122 ft | 480 kts | 67° |
| 2026-05-01 12:23 | 59.66980 | 46.27584 | 37121 ft | 480 kts | 67° |
| 2026-05-01 12:24 | 59.69332 | 46.39853 | 37121 ft | 480 kts | 67° |
| 2026-05-01 12:24 | 59.71687 | 46.52211 | 37121 ft | 480 kts | 67° |
| 2026-05-01 12:25 | 59.75200 | 46.70796 | 37121 ft | 480 kts | 68° |
| 2026-05-01 12:26 | 59.77531 | 46.83226 | 37122 ft | 481 kts | 68° |
| 2026-05-01 12:26 | 59.81006 | 47.01935 | 37112 ft | 481 kts | 68° |
| 2026-05-01 12:27 | 59.84374 | 47.20749 | 37112 ft | 481 kts | 68° |
| 2026-05-01 12:28 | 59.87781 | 47.39583 | 37117 ft | 485 kts | 69° |
| 2026-05-01 12:29 | 59.91199 | 47.58503 | 37108 ft | 486 kts | 69° |
| 2026-05-01 12:29 | 59.94602 | 47.77540 | 37108 ft | 486 kts | 69° |
| 2026-05-01 12:30 | 59.97966 | 47.96646 | 37108 ft | 486 kts | 69° |
| 2026-05-01 12:31 | 60.00207 | 48.09395 | 37107 ft | 488 kts | 69° |
| 2026-05-01 12:31 | 60.02458 | 48.22206 | 37105 ft | 488 kts | 69° |
| 2026-05-01 12:32 | 60.04698 | 48.35017 | 37103 ft | 488 kts | 69° |
| 2026-05-01 12:32 | 60.08037 | 48.54283 | 37100 ft | 488 kts | 69° |
| 2026-05-01 12:33 | 60.10246 | 48.67141 | 37106 ft | 489 kts | 70° |
| 2026-05-01 12:33 | 60.12452 | 48.80072 | 37095 ft | 490 kts | 70° |
| 2026-05-01 12:34 | 60.14646 | 48.93027 | 37097 ft | 490 kts | 70° |
| 2026-05-01 12:34 | 60.16828 | 49.06007 | 37092 ft | 490 kts | 70° |
| 2026-05-01 12:35 | 60.19000 | 49.19014 | 37094 ft | 493 kts | 71° |
| 2026-05-01 12:35 | 60.21028 | 49.32117 | 37088 ft | 495 kts | 72° |
| 2026-05-01 12:36 | 60.22996 | 49.45423 | 37091 ft | 498 kts | 72° |
| 2026-05-01 12:36 | 60.24981 | 49.58754 | 37090 ft | 498 kts | 73° |
| 2026-05-01 12:37 | 60.26973 | 49.72098 | 37083 ft | 498 kts | 72° |
| 2026-05-01 12:37 | 60.28957 | 49.85462 | 37079 ft | 497 kts | 72° |
| 2026-05-01 12:38 | 60.30926 | 49.98838 | 37074 ft | 497 kts | 73° |
| 2026-05-01 12:38 | 60.32865 | 50.12120 | 37071 ft | 499 kts | 73° |
| 2026-05-01 12:39 | 60.34814 | 50.25581 | 37069 ft | 500 kts | 73° |
| 2026-05-01 12:39 | 60.36747 | 50.39053 | 37066 ft | 500 kts | 73° |
| 2026-05-01 12:40 | 60.38670 | 50.52558 | 37079 ft | 500 kts | 73° |
| 2026-05-01 12:40 | 60.40577 | 50.66060 | 37066 ft | 500 kts | 73° |
| 2026-05-01 12:41 | 60.42476 | 50.79621 | 37069 ft | 502 kts | 74° |
| 2026-05-01 12:41 | 60.44307 | 50.93244 | 37067 ft | 502 kts | 75° |
| 2026-05-01 12:42 | 60.46132 | 51.06882 | 37074 ft | 502 kts | 75° |
| 2026-05-01 12:42 | 60.47979 | 51.20523 | 37062 ft | 502 kts | 75° |
| 2026-05-01 12:43 | 60.49830 | 51.34171 | 37059 ft | 502 kts | 75° |
| 2026-05-01 12:43 | 60.51666 | 51.47744 | 37060 ft | 503 kts | 75° |
| 2026-05-01 12:44 | 60.53502 | 51.61433 | 37062 ft | 503 kts | 75° |
| 2026-05-01 12:45 | 60.57107 | 51.88902 | 37061 ft | 503 kts | 75° |
| 2026-05-01 12:45 | 60.58900 | 52.02650 | 37065 ft | 503 kts | 75° |
| 2026-05-01 12:46 | 60.60386 | 52.14100 | 37056 ft | 504 kts | 75° |
| 2026-05-01 12:46 | 60.62164 | 52.27908 | 37064 ft | 504 kts | 76° |
| 2026-05-01 12:47 | 60.63928 | 52.41730 | 37066 ft | 504 kts | 76° |
| 2026-05-01 12:47 | 60.65678 | 52.55578 | 37062 ft | 504 kts | 76° |
| 2026-05-01 12:48 | 60.67414 | 52.69445 | 37068 ft | 504 kts | 76° |
| 2026-05-01 12:48 | 60.69134 | 52.83309 | 37067 ft | 504 kts | 76° |
| 2026-05-01 12:49 | 60.70840 | 52.97194 | 37057 ft | 504 kts | 76° |
| 2026-05-01 12:49 | 60.72531 | 53.11091 | 37060 ft | 504 kts | 76° |
| 2026-05-01 12:50 | 60.74208 | 53.25004 | 37054 ft | 504 kts | 77° |
| 2026-05-01 12:50 | 60.75831 | 53.38932 | 37069 ft | 504 kts | 77° |
| 2026-05-01 12:51 | 60.77419 | 53.52911 | 37061 ft | 505 kts | 77° |
| 2026-05-01 12:52 | 60.79885 | 53.73878 | 37066 ft | 505 kts | 77° |
| 2026-05-01 12:52 | 60.82413 | 53.94855 | 37049 ft | 505 kts | 77° |
| 2026-05-01 12:53 | 60.84874 | 54.15564 | 37046 ft | 505 kts | 77° |
| 2026-05-01 12:54 | 60.86519 | 54.29600 | 37057 ft | 506 kts | 77° |
| 2026-05-01 12:54 | 60.88961 | 54.50707 | 37043 ft | 506 kts | 78° |
| 2026-05-01 12:55 | 60.91365 | 54.71795 | 37050 ft | 505 kts | 78° |
| 2026-05-01 12:56 | 60.92948 | 54.85864 | 37042 ft | 505 kts | 78° |
| 2026-05-01 12:56 | 60.94519 | 54.99974 | 37048 ft | 506 kts | 78° |
| 2026-05-01 12:57 | 60.96075 | 55.14089 | 37046 ft | 506 kts | 78° |
| 2026-05-01 12:57 | 60.98336 | 55.35341 | 37048 ft | 506 kts | 79° |
| 2026-05-01 12:58 | 60.99798 | 55.49525 | 37049 ft | 506 kts | 79° |
| 2026-05-01 12:59 | 61.02034 | 55.70799 | 37048 ft | 507 kts | 79° |
| 2026-05-01 12:59 | 61.04259 | 55.92124 | 37045 ft | 507 kts | 79° |
| 2026-05-01 13:00 | 61.06448 | 56.13483 | 37045 ft | 507 kts | 79° |
| 2026-05-01 13:01 | 61.08604 | 56.34885 | 37041 ft | 508 kts | 80° |
| 2026-05-01 13:02 | 61.10728 | 56.56339 | 37042 ft | 508 kts | 80° |
| 2026-05-01 13:07 | 61.30385 | 58.12805 | 37038 ft | 513 kts | 75° |
| 2026-05-01 13:08 | 61.32415 | 58.27051 | 37039 ft | 513 kts | 75° |
| 2026-05-01 13:08 | 61.34403 | 58.41124 | 37028 ft | 514 kts | 75° |
| 2026-05-01 13:09 | 61.36410 | 58.55456 | 37030 ft | 515 kts | 76° |
| 2026-05-01 13:09 | 61.38400 | 58.69793 | 37027 ft | 515 kts | 76° |
| 2026-05-01 13:10 | 61.40369 | 58.84165 | 37020 ft | 515 kts | 76° |
| 2026-05-01 13:10 | 61.42249 | 58.98497 | 37017 ft | 516 kts | 77° |
| 2026-05-01 13:11 | 61.44159 | 59.12942 | 37015 ft | 517 kts | 77° |
| 2026-05-01 13:11 | 61.46090 | 59.27411 | 37020 ft | 517 kts | 77° |
| 2026-05-01 13:12 | 61.48015 | 59.41890 | 37013 ft | 517 kts | 77° |
| 2026-05-01 13:12 | 61.49923 | 59.56390 | 37012 ft | 517 kts | 77° |
| 2026-05-01 13:13 | 61.51815 | 59.70915 | 37007 ft | 517 kts | 77° |
| 2026-05-01 13:13 | 61.53689 | 59.85447 | 37004 ft | 517 kts | 77° |
| 2026-05-01 13:14 | 61.55540 | 59.99996 | 37002 ft | 516 kts | 78° |
| 2026-05-01 13:14 | 61.57348 | 60.14588 | 36993 ft | 517 kts | 78° |
| 2026-05-01 13:15 | 61.59170 | 60.29177 | 36996 ft | 517 kts | 78° |
| 2026-05-01 13:15 | 61.60998 | 60.43776 | 36983 ft | 517 kts | 78° |
| 2026-05-01 13:16 | 61.62816 | 60.58413 | 36995 ft | 518 kts | 78° |
| 2026-05-01 13:16 | 61.64618 | 60.73068 | 36994 ft | 518 kts | 78° |
| 2026-05-01 13:17 | 61.68168 | 61.02461 | 36994 ft | 518 kts | 79° |
| 2026-05-01 13:18 | 61.70757 | 61.24571 | 36991 ft | 519 kts | 79° |
| 2026-05-01 13:18 | 61.72500 | 61.39352 | 36990 ft | 519 kts | 78° |
| 2026-05-01 13:19 | 61.74235 | 61.54130 | 36994 ft | 519 kts | 79° |
| 2026-05-01 13:20 | 61.76808 | 61.76326 | 36995 ft | 518 kts | 79° |
| 2026-05-01 13:20 | 61.78489 | 61.91039 | 36959 ft | 519 kts | 79° |
| 2026-05-01 13:21 | 61.81009 | 62.13389 | 36995 ft | 522 kts | 79° |
| 2026-05-01 13:21 | 61.82672 | 62.28328 | 36995 ft | 522 kts | 79° |
| 2026-05-01 13:22 | 61.84320 | 62.43300 | 36989 ft | 522 kts | 79° |
| 2026-05-01 13:22 | 61.85950 | 62.58272 | 36975 ft | 522 kts | 80° |
| 2026-05-01 13:23 | 61.87555 | 62.73324 | 36989 ft | 524 kts | 81° |
| 2026-05-01 13:23 | 61.89064 | 62.88216 | 36990 ft | 524 kts | 81° |
| 2026-05-01 13:24 | 61.90615 | 63.03314 | 36984 ft | 524 kts | 80° |
| 2026-05-01 13:25 | 61.92944 | 63.25947 | 36978 ft | 523 kts | 83° |
| 2026-05-01 13:25 | 61.93641 | 63.41261 | 36992 ft | 520 kts | 92° |
| 2026-05-01 13:26 | 61.93736 | 63.56584 | 36990 ft | 519 kts | 93° |
| 2026-05-01 13:26 | 61.93807 | 63.71835 | 36987 ft | 519 kts | 93° |
| 2026-05-01 13:27 | 61.93939 | 63.87166 | 36987 ft | 519 kts | 92° |
| 2026-05-01 13:27 | 61.94151 | 64.10187 | 36990 ft | 520 kts | 93° |
| 2026-05-01 13:28 | 61.94322 | 64.33215 | 36976 ft | 519 kts | 94° |
| 2026-05-01 13:29 | 61.94483 | 64.63846 | 36982 ft | 518 kts | 94° |
| 2026-05-01 13:31 | 61.93673 | 65.09555 | 36991 ft | 514 kts | 101° |
| 2026-05-01 13:32 | 61.92022 | 65.44818 | 36979 ft | 515 kts | 101° |
| 2026-05-01 13:33 | 61.90271 | 65.82605 | 36966 ft | 515 kts | 101° |
| 2026-05-01 13:34 | 61.88791 | 66.12796 | 36966 ft | 514 kts | 101° |
| 2026-05-01 13:35 | 61.87637 | 66.35412 | 36974 ft | 514 kts | 102° |
| 2026-05-01 13:36 | 61.86452 | 66.57912 | 36964 ft | 516 kts | 102° |
| 2026-05-01 13:36 | 61.85128 | 66.80532 | 36965 ft | 516 kts | 102° |
| 2026-05-01 13:37 | 61.84245 | 66.95709 | 36959 ft | 516 kts | 102° |
| 2026-05-01 13:37 | 61.83389 | 67.10696 | 36961 ft | 516 kts | 102° |
| 2026-05-01 13:38 | 61.82089 | 67.33093 | 36958 ft | 514 kts | 103° |
| 2026-05-01 13:39 | 61.81193 | 67.48100 | 36959 ft | 514 kts | 103° |
| 2026-05-01 13:39 | 61.80281 | 67.63088 | 36960 ft | 514 kts | 103° |
| 2026-05-01 13:40 | 61.79352 | 67.78074 | 36959 ft | 514 kts | 103° |
| 2026-05-01 13:40 | 61.78408 | 67.93038 | 36958 ft | 514 kts | 103° |
| 2026-05-01 13:41 | 61.77446 | 68.08001 | 36956 ft | 513 kts | 103° |
| 2026-05-01 13:41 | 61.76406 | 68.22928 | 36956 ft | 514 kts | 104° |
| 2026-05-01 13:42 | 61.75360 | 68.37876 | 36957 ft | 515 kts | 104° |
| 2026-05-01 13:42 | 61.74332 | 68.52845 | 36933 ft | 514 kts | 104° |
| 2026-05-01 13:43 | 61.73303 | 68.67756 | 36954 ft | 514 kts | 104° |
| 2026-05-01 13:43 | 61.72257 | 68.82661 | 36960 ft | 513 kts | 104° |
| 2026-05-01 13:44 | 61.71192 | 68.97550 | 36943 ft | 514 kts | 104° |
| 2026-05-01 13:44 | 61.70108 | 69.12467 | 36960 ft | 515 kts | 104° |
| 2026-05-01 13:45 | 61.69008 | 69.27377 | 36958 ft | 515 kts | 104° |
| 2026-05-01 13:45 | 61.67899 | 69.42194 | 36958 ft | 515 kts | 105° |
| 2026-05-01 13:46 | 61.66766 | 69.57088 | 36962 ft | 515 kts | 105° |
| 2026-05-01 13:46 | 61.65620 | 69.71941 | 36960 ft | 515 kts | 105° |
| 2026-05-01 13:47 | 61.64432 | 69.86821 | 36908 ft | 515 kts | 106° |
| 2026-05-01 13:47 | 61.63175 | 70.01684 | 36949 ft | 515 kts | 105° |
| 2026-05-01 13:48 | 61.61945 | 70.16519 | 36950 ft | 516 kts | 105° |
| 2026-05-01 13:48 | 61.60727 | 70.31386 | 36949 ft | 516 kts | 105° |
| 2026-05-01 13:49 | 61.59501 | 70.46214 | 36944 ft | 515 kts | 105° |
| 2026-05-01 13:49 | 61.58257 | 70.61027 | 36933 ft | 516 kts | 105° |
| 2026-05-01 13:50 | 61.56991 | 70.75878 | 36936 ft | 517 kts | 106° |
| 2026-05-01 13:50 | 61.55710 | 70.90702 | 36950 ft | 516 kts | 106° |
| 2026-05-01 13:51 | 61.54403 | 71.05515 | 36951 ft | 516 kts | 107° |
| 2026-05-01 13:51 | 61.53050 | 71.20279 | 36903 ft | 516 kts | 107° |
| 2026-05-01 13:52 | 61.51712 | 71.35024 | 36937 ft | 515 kts | 106° |
| 2026-05-01 13:52 | 61.50375 | 71.49804 | 36940 ft | 518 kts | 106° |
| 2026-05-01 13:53 | 61.49024 | 71.64606 | 36944 ft | 518 kts | 106° |
| 2026-05-01 13:53 | 61.46991 | 71.86524 | 36948 ft | 518 kts | 106° |
| 2026-05-01 13:54 | 61.45584 | 72.01277 | 36941 ft | 517 kts | 107° |
| 2026-05-01 13:54 | 61.44122 | 72.15994 | 36942 ft | 517 kts | 107° |
| 2026-05-01 13:55 | 61.42660 | 72.30734 | 36941 ft | 518 kts | 107° |
| 2026-05-01 13:55 | 61.41199 | 72.45474 | 36946 ft | 519 kts | 107° |
| 2026-05-01 13:56 | 61.39726 | 72.60207 | 36935 ft | 517 kts | 107° |
| 2026-05-01 13:56 | 61.38242 | 72.74862 | 36938 ft | 515 kts | 107° |
| 2026-05-01 13:57 | 61.36973 | 72.87004 | 36937 ft | 515 kts | 107° |
| 2026-05-01 13:57 | 61.35182 | 73.04038 | 36937 ft | 515 kts | 107° |
| 2026-05-01 13:58 | 61.33649 | 73.18639 | 36911 ft | 515 kts | 107° |
| 2026-05-01 13:58 | 61.32110 | 73.33198 | 36912 ft | 515 kts | 108° |
| 2026-05-01 13:59 | 61.30565 | 73.47653 | 36910 ft | 515 kts | 108° |
| 2026-05-01 13:59 | 61.28982 | 73.62288 | 36913 ft | 515 kts | 108° |
| 2026-05-01 14:00 | 61.27394 | 73.76804 | 36906 ft | 515 kts | 108° |
| 2026-05-01 14:00 | 61.25795 | 73.91261 | 36926 ft | 517 kts | 108° |
| 2026-05-01 14:01 | 61.24170 | 74.05809 | 36936 ft | 517 kts | 108° |
| 2026-05-01 14:01 | 61.22529 | 74.20348 | 36930 ft | 517 kts | 108° |
| 2026-05-01 14:02 | 61.20837 | 74.34822 | 36927 ft | 516 kts | 109° |
| 2026-05-01 14:02 | 61.19118 | 74.49281 | 36927 ft | 516 kts | 109° |
| 2026-05-01 14:03 | 61.17417 | 74.63776 | 36928 ft | 519 kts | 108° |
| 2026-05-01 14:03 | 61.15715 | 74.78295 | 36933 ft | 519 kts | 109° |
| 2026-05-01 14:04 | 61.13998 | 74.92807 | 36928 ft | 519 kts | 109° |
| 2026-05-01 14:04 | 61.12557 | 75.04860 | 36929 ft | 519 kts | 109° |
| 2026-05-01 14:05 | 61.10515 | 75.21759 | 36909 ft | 518 kts | 109° |
| 2026-05-01 14:05 | 61.08754 | 75.36174 | 36919 ft | 517 kts | 109° |
| 2026-05-01 14:06 | 61.06977 | 75.50579 | 36923 ft | 517 kts | 109° |
| 2026-05-01 14:06 | 61.05187 | 75.64952 | 36922 ft | 517 kts | 109° |
| 2026-05-01 14:07 | 61.03382 | 75.79304 | 36912 ft | 517 kts | 109° |
| 2026-05-01 14:08 | 61.00606 | 76.00768 | 36922 ft | 516 kts | 110° |
| 2026-05-01 14:08 | 60.98722 | 76.14883 | 36932 ft | 518 kts | 110° |
| 2026-05-01 14:09 | 60.96839 | 76.29208 | 36938 ft | 519 kts | 110° |
| 2026-05-01 14:09 | 60.94943 | 76.43517 | 36939 ft | 517 kts | 111° |
| 2026-05-01 14:10 | 60.92551 | 76.57391 | 36938 ft | 513 kts | 116° |
| 2026-05-01 14:10 | 60.89878 | 76.70946 | 36936 ft | 512 kts | 117° |
| 2026-05-01 14:11 | 60.87212 | 76.84420 | 36933 ft | 512 kts | 117° |
| 2026-05-01 14:11 | 60.83222 | 77.04805 | 36926 ft | 514 kts | 116° |
| 2026-05-01 14:12 | 60.80554 | 77.18416 | 36923 ft | 514 kts | 116° |
| 2026-05-01 14:12 | 60.77895 | 77.31993 | 36921 ft | 514 kts | 116° |
| 2026-05-01 14:13 | 60.75657 | 77.43388 | 36930 ft | 514 kts | 117° |
| 2026-05-01 14:13 | 60.72542 | 77.59140 | 36922 ft | 514 kts | 117° |
| 2026-05-01 14:14 | 60.70492 | 77.73175 | 36921 ft | 522 kts | 102° |
| 2026-05-01 14:14 | 60.69800 | 77.87998 | 36930 ft | 525 kts | 96° |
| 2026-05-01 14:15 | 60.69314 | 78.02888 | 36937 ft | 525 kts | 97° |
| 2026-05-01 14:15 | 60.68680 | 78.17735 | 36930 ft | 525 kts | 98° |
| 2026-05-01 14:16 | 60.67947 | 78.32568 | 36938 ft | 525 kts | 98° |
| 2026-05-01 14:16 | 60.67186 | 78.47372 | 36934 ft | 525 kts | 98° |
| 2026-05-01 14:17 | 60.66420 | 78.62095 | 36946 ft | 525 kts | 98° |
| 2026-05-01 14:17 | 60.65637 | 78.76901 | 37134 ft | 526 kts | 98° |
| 2026-05-01 14:18 | 60.65239 | 78.84314 | 37467 ft | 525 kts | 98° |
| 2026-05-01 14:18 | 60.64838 | 78.91713 | 37799 ft | 524 kts | 98° |
| 2026-05-01 14:18 | 60.64434 | 78.99089 | 38114 ft | 523 kts | 98° |
| 2026-05-01 14:18 | 60.64159 | 79.04058 | 38325 ft | 522 kts | 98° |
| 2026-05-01 14:19 | 60.63615 | 79.13784 | 38673 ft | 522 kts | 98° |
| 2026-05-01 14:19 | 60.63200 | 79.21123 | 38871 ft | 521 kts | 98° |
| 2026-05-01 14:19 | 60.62350 | 79.35803 | 38963 ft | 522 kts | 99° |
| 2026-05-01 14:20 | 60.61115 | 79.55267 | 38967 ft | 520 kts | 99° |
| 2026-05-01 14:21 | 60.60212 | 79.69853 | 38975 ft | 519 kts | 98° |
| 2026-05-01 14:21 | 60.59318 | 79.84458 | 38973 ft | 520 kts | 99° |
| 2026-05-01 14:22 | 60.57950 | 80.06400 | 38981 ft | 521 kts | 99° |
| 2026-05-01 14:22 | 60.57010 | 80.21025 | 38991 ft | 521 kts | 99° |
| 2026-05-01 14:23 | 60.56025 | 80.35611 | 38990 ft | 521 kts | 99° |
| 2026-05-01 14:23 | 60.55050 | 80.50062 | 39001 ft | 521 kts | 99° |
| 2026-05-01 14:24 | 60.54065 | 80.64678 | 39001 ft | 522 kts | 99° |
| 2026-05-01 14:24 | 60.53074 | 80.79201 | 39004 ft | 523 kts | 99° |
| 2026-05-01 14:25 | 60.52060 | 80.93814 | 39006 ft | 522 kts | 99° |
| 2026-05-01 14:25 | 60.51030 | 81.08407 | 39012 ft | 522 kts | 100° |
| 2026-05-01 14:26 | 60.49452 | 81.30303 | 39011 ft | 524 kts | 100° |
| 2026-05-01 14:27 | 60.48376 | 81.44938 | 39022 ft | 524 kts | 100° |
| 2026-05-01 14:27 | 60.47287 | 81.59536 | 39008 ft | 524 kts | 100° |
| 2026-05-01 14:28 | 60.45624 | 81.81408 | 39021 ft | 523 kts | 100° |
| 2026-05-01 14:28 | 60.44445 | 81.95941 | 39031 ft | 524 kts | 101° |
| 2026-05-01 14:29 | 60.43238 | 82.10522 | 39031 ft | 525 kts | 100° |
| 2026-05-01 14:30 | 60.40879 | 82.39713 | 39031 ft | 525 kts | 100° |
| 2026-05-01 14:31 | 60.39090 | 82.61470 | 39034 ft | 525 kts | 101° |
| 2026-05-01 14:31 | 60.37870 | 82.76029 | 39045 ft | 525 kts | 101° |
| 2026-05-01 14:32 | 60.36636 | 82.90553 | 39045 ft | 525 kts | 101° |
| 2026-05-01 14:32 | 60.35384 | 83.05086 | 39045 ft | 525 kts | 101° |
| 2026-05-01 14:33 | 60.34117 | 83.19591 | 39036 ft | 525 kts | 101° |
| 2026-05-01 14:33 | 60.32833 | 83.34108 | 39047 ft | 526 kts | 101° |
| 2026-05-01 14:34 | 60.31529 | 83.48659 | 39046 ft | 527 kts | 101° |
| 2026-05-01 14:34 | 60.30150 | 83.63172 | 39037 ft | 526 kts | 102° |
| 2026-05-01 14:35 | 60.28766 | 83.77644 | 39048 ft | 525 kts | 102° |
| 2026-05-01 14:35 | 60.27407 | 83.92099 | 39055 ft | 525 kts | 102° |
| 2026-05-01 14:36 | 60.26047 | 84.06549 | 39055 ft | 526 kts | 101° |
| 2026-05-01 14:36 | 60.24667 | 84.21041 | 39059 ft | 526 kts | 102° |
| 2026-05-01 14:37 | 60.23280 | 84.35399 | 39064 ft | 526 kts | 102° |
| 2026-05-01 14:37 | 60.21871 | 84.49809 | 39067 ft | 526 kts | 102° |
| 2026-05-01 14:38 | 60.20443 | 84.64239 | 39070 ft | 526 kts | 102° |
| 2026-05-01 14:38 | 60.19032 | 84.78496 | 39079 ft | 528 kts | 101° |
| 2026-05-01 14:39 | 60.17785 | 84.93045 | 39081 ft | 529 kts | 99° |
| 2026-05-01 14:39 | 60.16652 | 85.07629 | 39080 ft | 528 kts | 99° |
| 2026-05-01 14:40 | 60.15516 | 85.22223 | 39089 ft | 528 kts | 99° |
| 2026-05-01 14:40 | 60.14354 | 85.36774 | 39088 ft | 529 kts | 99° |
| 2026-05-01 14:41 | 60.13167 | 85.51342 | 39093 ft | 529 kts | 99° |
| 2026-05-01 14:41 | 60.11970 | 85.65812 | 39091 ft | 529 kts | 99° |
| 2026-05-01 14:42 | 60.10751 | 85.80358 | 39097 ft | 529 kts | 99° |
| 2026-05-01 14:42 | 60.09518 | 85.94869 | 39091 ft | 528 kts | 99° |
| 2026-05-01 14:43 | 60.08268 | 86.09379 | 39105 ft | 529 kts | 99° |
| 2026-05-01 14:43 | 60.07002 | 86.23898 | 39102 ft | 529 kts | 99° |
| 2026-05-01 14:44 | 60.05718 | 86.38409 | 39107 ft | 529 kts | 99° |
| 2026-05-01 14:44 | 60.03671 | 86.60111 | 39110 ft | 529 kts | 100° |
| 2026-05-01 14:45 | 60.01652 | 86.81810 | 39111 ft | 530 kts | 99° |
| 2026-05-01 14:46 | 60.00305 | 86.96304 | 39115 ft | 530 kts | 100° |
| 2026-05-01 14:46 | 59.98266 | 87.17901 | 39119 ft | 530 kts | 100° |
| 2026-05-01 14:47 | 59.96877 | 87.32361 | 39118 ft | 530 kts | 100° |
| 2026-05-01 14:48 | 59.94767 | 87.53999 | 39124 ft | 529 kts | 100° |
| 2026-05-01 14:48 | 59.92621 | 87.75611 | 39129 ft | 529 kts | 100° |
| 2026-05-01 14:49 | 59.89697 | 88.04389 | 39137 ft | 530 kts | 101° |
| 2026-05-01 14:50 | 59.86604 | 88.33121 | 39125 ft | 529 kts | 101° |
| 2026-05-01 14:51 | 59.84332 | 88.54566 | 39134 ft | 528 kts | 101° |
| 2026-05-01 14:52 | 59.82032 | 88.75989 | 39143 ft | 530 kts | 101° |
| 2026-05-01 14:53 | 59.79691 | 88.97400 | 39140 ft | 531 kts | 101° |
| 2026-05-01 14:53 | 59.78120 | 89.11577 | 39138 ft | 531 kts | 101° |
| 2026-05-01 14:54 | 59.76517 | 89.25881 | 39138 ft | 531 kts | 101° |
| 2026-05-01 14:54 | 59.74898 | 89.40178 | 39140 ft | 531 kts | 102° |
| 2026-05-01 14:55 | 59.73234 | 89.54446 | 39143 ft | 531 kts | 102° |
| 2026-05-01 14:55 | 59.71560 | 89.68705 | 39143 ft | 531 kts | 102° |
| 2026-05-01 14:56 | 59.69884 | 89.82944 | 39143 ft | 531 kts | 102° |
| 2026-05-01 14:56 | 59.68195 | 89.97179 | 39143 ft | 531 kts | 102° |
| 2026-05-01 14:57 | 59.66489 | 90.11412 | 39142 ft | 533 kts | 102° |
| 2026-05-01 14:57 | 59.63891 | 90.32817 | 39141 ft | 534 kts | 102° |
| 2026-05-01 14:58 | 59.62138 | 90.47068 | 39145 ft | 534 kts | 102° |
| 2026-05-01 14:58 | 59.60360 | 90.61294 | 39141 ft | 534 kts | 103° |
| 2026-05-01 14:59 | 59.58537 | 90.75496 | 39142 ft | 533 kts | 102° |
| 2026-05-01 14:59 | 59.56742 | 90.89590 | 39140 ft | 533 kts | 102° |
| 2026-05-01 15:00 | 59.54036 | 91.10855 | 39141 ft | 533 kts | 102° |
| 2026-05-01 15:01 | 59.52199 | 91.25122 | 39140 ft | 533 kts | 102° |
| 2026-05-01 15:01 | 59.50372 | 91.39169 | 39142 ft | 533 kts | 102° |
| 2026-05-01 15:02 | 59.48515 | 91.53304 | 39137 ft | 533 kts | 102° |
| 2026-05-01 15:02 | 59.46645 | 91.67418 | 39133 ft | 533 kts | 102° |
| 2026-05-01 15:03 | 59.44759 | 91.81514 | 39135 ft | 533 kts | 102° |
| 2026-05-01 15:03 | 59.42856 | 91.95605 | 39153 ft | 533 kts | 102° |
| 2026-05-01 15:04 | 59.40941 | 92.09665 | 39138 ft | 533 kts | 102° |
| 2026-05-01 15:04 | 59.38971 | 92.23703 | 39135 ft | 533 kts | 103° |
| 2026-05-01 15:05 | 59.36965 | 92.37711 | 39133 ft | 533 kts | 103° |
| 2026-05-01 15:05 | 59.34985 | 92.51721 | 39131 ft | 533 kts | 103° |
| 2026-05-01 15:06 | 59.33011 | 92.65714 | 39130 ft | 533 kts | 102° |
| 2026-05-01 15:06 | 59.31022 | 92.79700 | 39129 ft | 533 kts | 103° |
| 2026-05-01 15:07 | 59.29018 | 92.93658 | 39119 ft | 533 kts | 103° |
| 2026-05-01 15:07 | 59.27340 | 93.05246 | 39123 ft | 533 kts | 103° |
| 2026-05-01 15:08 | 59.25305 | 93.19194 | 39120 ft | 533 kts | 103° |
| 2026-05-01 15:08 | 59.23267 | 93.32945 | 39134 ft | 532 kts | 105° |
| 2026-05-01 15:09 | 59.20480 | 93.46382 | 39116 ft | 535 kts | 113° |
| 2026-05-01 15:09 | 59.17182 | 93.59405 | 39115 ft | 536 kts | 115° |
| 2026-05-01 15:10 | 59.13875 | 93.72397 | 39118 ft | 535 kts | 114° |
| 2026-05-01 15:10 | 59.09001 | 93.91962 | 39121 ft | 534 kts | 113° |
| 2026-05-01 15:11 | 59.04142 | 94.11436 | 39119 ft | 534 kts | 114° |
| 2026-05-01 15:12 | 59.00878 | 94.24399 | 39118 ft | 534 kts | 114° |
| 2026-05-01 15:12 | 58.95958 | 94.43787 | 39092 ft | 534 kts | 114° |
| 2026-05-01 15:14 | 58.87730 | 94.75838 | 39113 ft | 533 kts | 114° |
| 2026-05-01 15:14 | 58.82678 | 94.94981 | 39114 ft | 533 kts | 114° |
| 2026-05-01 15:15 | 58.75948 | 95.20480 | 39116 ft | 533 kts | 114° |
| 2026-05-01 15:16 | 58.69212 | 95.45895 | 39106 ft | 533 kts | 114° |
| 2026-05-01 15:18 | 58.60716 | 95.77511 | 39096 ft | 532 kts | 114° |
| 2026-05-01 15:19 | 58.53879 | 96.02641 | 39096 ft | 532 kts | 115° |
| 2026-05-01 15:19 | 58.48716 | 96.21425 | 39097 ft | 532 kts | 115° |
| 2026-05-01 15:20 | 58.43456 | 96.40079 | 39100 ft | 532 kts | 115° |
| 2026-05-01 15:21 | 58.39983 | 96.52437 | 39098 ft | 532 kts | 115° |
| 2026-05-01 15:21 | 58.36501 | 96.64851 | 39099 ft | 532 kts | 115° |
| 2026-05-01 15:22 | 58.31266 | 96.83456 | 39120 ft | 532 kts | 115° |
| 2026-05-01 15:22 | 58.27759 | 96.95837 | 39087 ft | 531 kts | 115° |
| 2026-05-01 15:23 | 58.24244 | 97.08179 | 39092 ft | 531 kts | 115° |
| 2026-05-01 15:23 | 58.20746 | 97.20392 | 39089 ft | 531 kts | 115° |
| 2026-05-01 15:24 | 58.17208 | 97.32681 | 39087 ft | 531 kts | 115° |
| 2026-05-01 15:24 | 58.13655 | 97.44955 | 39084 ft | 531 kts | 115° |
| 2026-05-01 15:25 | 58.10099 | 97.57170 | 39087 ft | 530 kts | 115° |
| 2026-05-01 15:25 | 58.06526 | 97.69385 | 39083 ft | 530 kts | 115° |
| 2026-05-01 15:26 | 58.02946 | 97.81559 | 39080 ft | 530 kts | 116° |
| 2026-05-01 15:26 | 57.99314 | 97.93681 | 39081 ft | 531 kts | 116° |
| 2026-05-01 15:27 | 57.95670 | 98.05756 | 39090 ft | 529 kts | 116° |
| 2026-05-01 15:28 | 57.90248 | 98.23832 | 39079 ft | 529 kts | 116° |
| 2026-05-01 15:28 | 57.86627 | 98.35871 | 39083 ft | 529 kts | 116° |
| 2026-05-01 15:29 | 57.81177 | 98.53862 | 39112 ft | 529 kts | 116° |
| 2026-05-01 15:30 | 57.73893 | 98.77682 | 39082 ft | 528 kts | 116° |
| 2026-05-01 15:31 | 57.63106 | 99.13554 | 39091 ft | 526 kts | 114° |
| 2026-05-01 15:32 | 57.56205 | 99.37579 | 39076 ft | 525 kts | 114° |
| 2026-05-01 15:34 | 57.45752 | 99.73368 | 39078 ft | 524 kts | 114° |